sensor_id;sensor_type;location;lat;lon;timestamp;P1;durP1;ratioP1;P2;durP2;ratioP2
34471;SDS011;20710;49.976;19.836;2023-04-24T00:00:29;13.30;;;8.40;;
34471;SDS011;20710;49.976;19.836;2023-04-24T00:08:04;11.70;;;7.40;;
34471;SDS011;20710;49.976;19.836;2023-04-24T00:15:17;12.00;;;7.70;;
34471;SDS011;20710;49.976;19.836;2023-04-24T00:34:38;11.70;;;7.30;;
34471;SDS011;20710;49.976;19.836;2023-04-24T00:48:51;15.60;;;9.40;;
34471;SDS011;20710;49.976;19.836;2023-04-24T00:55:52;15.30;;;9.80;;
34471;SDS011;20710;49.976;19.836;2023-04-24T01:02:28;13.90;;;9.30;;
34471;SDS011;20710;49.976;19.836;2023-04-24T01:09:21;17.10;;;9.50;;
34471;SDS011;20710;49.976;19.836;2023-04-24T01:16:25;12.20;;;7.60;;
34471;SDS011;20710;49.976;19.836;2023-04-24T01:22:39;13.60;;;7.50;;
34471;SDS011;20710;49.976;19.836;2023-04-24T01:28:42;11.50;;;8.30;;
34471;SDS011;20710;49.976;19.836;2023-04-24T01:35:29;15.60;;;8.60;;
34471;SDS011;20710;49.976;19.836;2023-04-24T01:41:37;11.70;;;8.20;;
34471;SDS011;20710;49.976;19.836;2023-04-24T01:48:53;11.90;;;8.20;;
34471;SDS011;20710;49.976;19.836;2023-04-24T01:54:59;10.80;;;8.10;;
34471;SDS011;20710;49.976;19.836;2023-04-24T02:01:19;15.10;;;8.90;;
34471;SDS011;20710;49.976;19.836;2023-04-24T02:08:42;19.20;;;9.20;;
34471;SDS011;20710;49.976;19.836;2023-04-24T02:15:44;12.30;;;8.10;;
34471;SDS011;20710;49.976;19.836;2023-04-24T02:30:40;17.10;;;8.90;;
34471;SDS011;20710;49.976;19.836;2023-04-24T02:37:09;15.10;;;9.00;;
34471;SDS011;20710;49.976;19.836;2023-04-24T02:43:19;14.10;;;9.10;;
34471;SDS011;20710;49.976;19.836;2023-04-24T02:49:35;13.70;;;8.00;;
34471;SDS011;20710;49.976;19.836;2023-04-24T02:55:46;13.00;;;8.30;;
34471;SDS011;20710;49.976;19.836;2023-04-24T03:02:27;10.60;;;6.70;;
34471;SDS011;20710;49.976;19.836;2023-04-24T03:08:52;10.60;;;7.00;;
34471;SDS011;20710;49.976;19.836;2023-04-24T03:15:49;14.30;;;7.80;;
34471;SDS011;20710;49.976;19.836;2023-04-24T03:22:21;12.90;;;7.60;;
34471;SDS011;20710;49.976;19.836;2023-04-24T03:28:58;11.30;;;6.70;;
34471;SDS011;20710;49.976;19.836;2023-04-24T03:35:29;13.10;;;7.50;;
34471;SDS011;20710;49.976;19.836;2023-04-24T03:41:33;11.20;;;7.90;;
34471;SDS011;20710;49.976;19.836;2023-04-24T03:54:33;16.10;;;7.60;;
34471;SDS011;20710;49.976;19.836;2023-04-24T04:00:55;11.60;;;7.30;;
34471;SDS011;20710;49.976;19.836;2023-04-24T04:07:14;11.70;;;6.80;;
34471;SDS011;20710;49.976;19.836;2023-04-24T04:13:37;12.00;;;6.70;;
34471;SDS011;20710;49.976;19.836;2023-04-24T04:19:38;10.20;;;7.00;;
34471;SDS011;20710;49.976;19.836;2023-04-24T04:26:10;10.20;;;6.50;;
34471;SDS011;20710;49.976;19.836;2023-04-24T04:32:48;13.30;;;6.90;;
34471;SDS011;20710;49.976;19.836;2023-04-24T04:46:06;11.20;;;7.00;;
34471;SDS011;20710;49.976;19.836;2023-04-24T04:52:31;14.80;;;6.40;;
34471;SDS011;20710;49.976;19.836;2023-04-24T04:59:34;11.10;;;6.70;;
34471;SDS011;20710;49.976;19.836;2023-04-24T05:05:46;8.70;;;6.00;;
34471;SDS011;20710;49.976;19.836;2023-04-24T05:11:49;15.20;;;6.70;;
34471;SDS011;20710;49.976;19.836;2023-04-24T05:18:17;12.20;;;7.70;;
34471;SDS011;20710;49.976;19.836;2023-04-24T05:24:40;9.60;;;6.20;;
34471;SDS011;20710;49.976;19.836;2023-04-24T05:31:06;8.90;;;5.80;;
34471;SDS011;20710;49.976;19.836;2023-04-24T05:37:45;10.50;;;6.00;;
34471;SDS011;20710;49.976;19.836;2023-04-24T05:43:57;9.70;;;5.90;;
34471;SDS011;20710;49.976;19.836;2023-04-24T05:50:00;16.10;;;7.30;;
34471;SDS011;20710;49.976;19.836;2023-04-24T05:56:14;17.70;;;7.00;;
34471;SDS011;20710;49.976;19.836;2023-04-24T06:02:29;9.70;;;5.50;;
34471;SDS011;20710;49.976;19.836;2023-04-24T06:09:11;12.10;;;5.00;;
34471;SDS011;20710;49.976;19.836;2023-04-24T06:15:38;15.00;;;5.60;;
34471;SDS011;20710;49.976;19.836;2023-04-24T06:21:55;8.00;;;4.80;;
34471;SDS011;20710;49.976;19.836;2023-04-24T06:28:09;8.20;;;3.80;;
34471;SDS011;20710;49.976;19.836;2023-04-24T06:34:13;7.00;;;4.80;;
34471;SDS011;20710;49.976;19.836;2023-04-24T06:40:27;6.40;;;3.90;;
34471;SDS011;20710;49.976;19.836;2023-04-24T06:47:16;7.50;;;4.20;;
34471;SDS011;20710;49.976;19.836;2023-04-24T06:53:54;7.60;;;4.30;;
34471;SDS011;20710;49.976;19.836;2023-04-24T06:59:59;6.70;;;3.60;;
34471;SDS011;20710;49.976;19.836;2023-04-24T07:06:00;6.60;;;3.60;;
34471;SDS011;20710;49.976;19.836;2023-04-24T07:12:02;9.40;;;4.50;;
34471;SDS011;20710;49.976;19.836;2023-04-24T07:18:06;4.30;;;3.50;;
34471;SDS011;20710;49.976;19.836;2023-04-24T07:24:29;7.30;;;3.50;;
34471;SDS011;20710;49.976;19.836;2023-04-24T07:38:17;5.70;;;3.30;;
34471;SDS011;20710;49.976;19.836;2023-04-24T07:44:40;6.30;;;3.20;;
34471;SDS011;20710;49.976;19.836;2023-04-24T07:51:14;5.80;;;4.00;;
34471;SDS011;20710;49.976;19.836;2023-04-24T07:57:16;5.70;;;3.70;;
34471;SDS011;20710;49.976;19.836;2023-04-24T08:03:21;6.50;;;3.70;;
34471;SDS011;20710;49.976;19.836;2023-04-24T08:09:31;4.90;;;3.60;;
34471;SDS011;20710;49.976;19.836;2023-04-24T08:15:33;4.80;;;3.40;;
34471;SDS011;20710;49.976;19.836;2023-04-24T08:22:01;5.20;;;2.90;;
34471;SDS011;20710;49.976;19.836;2023-04-24T08:28:05;6.80;;;3.50;;
34471;SDS011;20710;49.976;19.836;2023-04-24T08:34:40;5.00;;;3.30;;
34471;SDS011;20710;49.976;19.836;2023-04-24T08:47:21;7.20;;;3.50;;
34471;SDS011;20710;49.976;19.836;2023-04-24T08:53:26;3.40;;;3.00;;
34471;SDS011;20710;49.976;19.836;2023-04-24T08:59:29;8.00;;;3.50;;
34471;SDS011;20710;49.976;19.836;2023-04-24T09:05:34;7.50;;;3.80;;
34471;SDS011;20710;49.976;19.836;2023-04-24T09:11:36;3.90;;;3.30;;
34471;SDS011;20710;49.976;19.836;2023-04-24T09:17:41;5.50;;;3.10;;
34471;SDS011;20710;49.976;19.836;2023-04-24T09:24:34;4.60;;;3.20;;
34471;SDS011;20710;49.976;19.836;2023-04-24T09:30:37;5.10;;;3.30;;
34471;SDS011;20710;49.976;19.836;2023-04-24T09:37:34;4.30;;;2.80;;
34471;SDS011;20710;49.976;19.836;2023-04-24T09:44:29;3.50;;;2.80;;
34471;SDS011;20710;49.976;19.836;2023-04-24T09:52:18;4.40;;;2.70;;
34471;SDS011;20710;49.976;19.836;2023-04-24T09:58:51;4.30;;;3.20;;
34471;SDS011;20710;49.976;19.836;2023-04-24T10:05:11;4.90;;;2.70;;
34471;SDS011;20710;49.976;19.836;2023-04-24T10:12:10;4.20;;;2.40;;
34471;SDS011;20710;49.976;19.836;2023-04-24T10:19:22;5.20;;;2.80;;
34471;SDS011;20710;49.976;19.836;2023-04-24T10:26:13;5.20;;;2.80;;
34471;SDS011;20710;49.976;19.836;2023-04-24T10:38:52;5.10;;;2.50;;
34471;SDS011;20710;49.976;19.836;2023-04-24T10:45:17;11.90;;;3.30;;
34471;SDS011;20710;49.976;19.836;2023-04-24T10:51:23;2.80;;;2.40;;
34471;SDS011;20710;49.976;19.836;2023-04-24T10:57:26;5.00;;;2.80;;
34471;SDS011;20710;49.976;19.836;2023-04-24T11:04:21;4.80;;;2.70;;
34471;SDS011;20710;49.976;19.836;2023-04-24T11:11:15;5.90;;;2.50;;
34471;SDS011;20710;49.976;19.836;2023-04-24T11:17:33;7.30;;;2.40;;
34471;SDS011;20710;49.976;19.836;2023-04-24T11:23:38;3.50;;;2.60;;
34471;SDS011;20710;49.976;19.836;2023-04-24T11:37:55;3.70;;;2.60;;
34471;SDS011;20710;49.976;19.836;2023-04-24T11:50:45;5.90;;;2.30;;
34471;SDS011;20710;49.976;19.836;2023-04-24T11:57:14;5.40;;;2.00;;
34471;SDS011;20710;49.976;19.836;2023-04-24T12:05:19;3.10;;;2.20;;
34471;SDS011;20710;49.976;19.836;2023-04-24T12:11:22;5.50;;;3.00;;
34471;SDS011;20710;49.976;19.836;2023-04-24T12:18:34;13.70;;;4.10;;
34471;SDS011;20710;49.976;19.836;2023-04-24T12:32:00;11.50;;;4.40;;
34471;SDS011;20710;49.976;19.836;2023-04-24T12:44:41;8.40;;;4.10;;
34471;SDS011;20710;49.976;19.836;2023-04-24T12:50:43;8.40;;;3.70;;
34471;SDS011;20710;49.976;19.836;2023-04-24T12:56:45;4.50;;;3.10;;
34471;SDS011;20710;49.976;19.836;2023-04-24T13:10:16;4.90;;;3.20;;
34471;SDS011;20710;49.976;19.836;2023-04-24T13:30:20;4.90;;;2.90;;
34471;SDS011;20710;49.976;19.836;2023-04-24T13:36:34;4.80;;;2.80;;
34471;SDS011;20710;49.976;19.836;2023-04-24T13:43:11;6.00;;;3.50;;
34471;SDS011;20710;49.976;19.836;2023-04-24T13:49:13;6.30;;;3.00;;
34471;SDS011;20710;49.976;19.836;2023-04-24T13:55:15;8.90;;;3.30;;
34471;SDS011;20710;49.976;19.836;2023-04-24T14:01:20;4.50;;;2.90;;
34471;SDS011;20710;49.976;19.836;2023-04-24T14:07:45;7.20;;;3.00;;
34471;SDS011;20710;49.976;19.836;2023-04-24T14:13:51;3.80;;;2.80;;
34471;SDS011;20710;49.976;19.836;2023-04-24T14:20:13;5.40;;;2.30;;
34471;SDS011;20710;49.976;19.836;2023-04-24T14:26:35;2.80;;;2.10;;
34471;SDS011;20710;49.976;19.836;2023-04-24T14:32:49;4.10;;;1.90;;
34471;SDS011;20710;49.976;19.836;2023-04-24T14:47:16;4.80;;;2.10;;
34471;SDS011;20710;49.976;19.836;2023-04-24T14:54:34;6.10;;;1.50;;
34471;SDS011;20710;49.976;19.836;2023-04-24T15:01:42;2.40;;;1.70;;
34471;SDS011;20710;49.976;19.836;2023-04-24T15:08:13;1.70;;;1.50;;
34471;SDS011;20710;49.976;19.836;2023-04-24T15:16:21;2.10;;;1.70;;
34471;SDS011;20710;49.976;19.836;2023-04-24T15:22:28;5.10;;;2.20;;
34471;SDS011;20710;49.976;19.836;2023-04-24T15:28:29;2.20;;;2.00;;
34471;SDS011;20710;49.976;19.836;2023-04-24T15:34:54;4.70;;;2.80;;
34471;SDS011;20710;49.976;19.836;2023-04-24T15:40:59;4.00;;;3.30;;
34471;SDS011;20710;49.976;19.836;2023-04-24T15:47:07;3.70;;;3.10;;
34471;SDS011;20710;49.976;19.836;2023-04-24T15:53:15;4.20;;;2.80;;
34471;SDS011;20710;49.976;19.836;2023-04-24T16:07:15;4.20;;;1.70;;
34471;SDS011;20710;49.976;19.836;2023-04-24T16:13:20;2.60;;;1.60;;
34471;SDS011;20710;49.976;19.836;2023-04-24T16:19:44;4.40;;;2.10;;
34471;SDS011;20710;49.976;19.836;2023-04-24T16:25:50;3.10;;;2.40;;
34471;SDS011;20710;49.976;19.836;2023-04-24T16:39:25;5.40;;;4.00;;
34471;SDS011;20710;49.976;19.836;2023-04-24T16:53:31;4.80;;;3.80;;
34471;SDS011;20710;49.976;19.836;2023-04-24T16:59:32;4.50;;;3.70;;
34471;SDS011;20710;49.976;19.836;2023-04-24T17:05:34;4.60;;;3.40;;
34471;SDS011;20710;49.976;19.836;2023-04-24T17:11:56;5.40;;;3.60;;
34471;SDS011;20710;49.976;19.836;2023-04-24T17:18:35;5.50;;;4.50;;
34471;SDS011;20710;49.976;19.836;2023-04-24T17:24:45;6.00;;;3.80;;
34471;SDS011;20710;49.976;19.836;2023-04-24T17:37:35;9.80;;;3.90;;
34471;SDS011;20710;49.976;19.836;2023-04-24T17:44:42;6.30;;;4.10;;
34471;SDS011;20710;49.976;19.836;2023-04-24T17:51:32;7.10;;;4.60;;
34471;SDS011;20710;49.976;19.836;2023-04-24T17:57:51;6.30;;;4.70;;
34471;SDS011;20710;49.976;19.836;2023-04-24T18:04:51;9.80;;;5.20;;
34471;SDS011;20710;49.976;19.836;2023-04-24T18:11:01;9.30;;;5.60;;
34471;SDS011;20710;49.976;19.836;2023-04-24T18:17:25;7.90;;;5.20;;
34471;SDS011;20710;49.976;19.836;2023-04-24T18:23:44;10.30;;;5.20;;
34471;SDS011;20710;49.976;19.836;2023-04-24T18:36:51;10.70;;;6.40;;
34471;SDS011;20710;49.976;19.836;2023-04-24T18:43:31;7.40;;;4.70;;
34471;SDS011;20710;49.976;19.836;2023-04-24T18:49:53;8.60;;;6.10;;
34471;SDS011;20710;49.976;19.836;2023-04-24T18:55:55;11.70;;;8.20;;
34471;SDS011;20710;49.976;19.836;2023-04-24T19:02:23;11.80;;;6.50;;
34471;SDS011;20710;49.976;19.836;2023-04-24T19:08:24;10.10;;;6.70;;
34471;SDS011;20710;49.976;19.836;2023-04-24T19:14:47;12.10;;;8.00;;
34471;SDS011;20710;49.976;19.836;2023-04-24T19:20:58;17.00;;;9.30;;
34471;SDS011;20710;49.976;19.836;2023-04-24T19:27:14;18.90;;;10.60;;
34471;SDS011;20710;49.976;19.836;2023-04-24T19:33:20;14.90;;;9.10;;
34471;SDS011;20710;49.976;19.836;2023-04-24T19:39:42;16.20;;;9.90;;
34471;SDS011;20710;49.976;19.836;2023-04-24T19:45:47;16.40;;;9.70;;
34471;SDS011;20710;49.976;19.836;2023-04-24T19:52:10;14.00;;;8.30;;
34471;SDS011;20710;49.976;19.836;2023-04-24T19:58:54;15.00;;;8.50;;
34471;SDS011;20710;49.976;19.836;2023-04-24T20:05:18;14.40;;;8.80;;
34471;SDS011;20710;49.976;19.836;2023-04-24T20:19:22;12.70;;;8.70;;
34471;SDS011;20710;49.976;19.836;2023-04-24T20:32:20;12.30;;;8.70;;
34471;SDS011;20710;49.976;19.836;2023-04-24T20:38:42;13.40;;;8.20;;
34471;SDS011;20710;49.976;19.836;2023-04-24T20:45:13;12.90;;;8.30;;
34471;SDS011;20710;49.976;19.836;2023-04-24T20:51:34;17.10;;;9.80;;
34471;SDS011;20710;49.976;19.836;2023-04-24T20:58:04;16.40;;;10.80;;
34471;SDS011;20710;49.976;19.836;2023-04-24T21:05:16;19.20;;;12.10;;
34471;SDS011;20710;49.976;19.836;2023-04-24T21:12:16;20.70;;;12.50;;
34471;SDS011;20710;49.976;19.836;2023-04-24T21:18:21;24.80;;;13.80;;
34471;SDS011;20710;49.976;19.836;2023-04-24T21:24:24;27.00;;;17.80;;
34471;SDS011;20710;49.976;19.836;2023-04-24T21:37:36;27.00;;;18.10;;
34471;SDS011;20710;49.976;19.836;2023-04-24T21:43:43;27.20;;;17.70;;
34471;SDS011;20710;49.976;19.836;2023-04-24T21:49:51;27.40;;;18.40;;
34471;SDS011;20710;49.976;19.836;2023-04-24T21:55:54;31.20;;;20.60;;
34471;SDS011;20710;49.976;19.836;2023-04-24T22:02:11;36.00;;;21.40;;
34471;SDS011;20710;49.976;19.836;2023-04-24T22:08:43;27.30;;;20.00;;
34471;SDS011;20710;49.976;19.836;2023-04-24T22:16:11;27.80;;;19.50;;
34471;SDS011;20710;49.976;19.836;2023-04-24T22:23:01;30.60;;;22.70;;
34471;SDS011;20710;49.976;19.836;2023-04-24T22:29:26;24.20;;;19.80;;
34471;SDS011;20710;49.976;19.836;2023-04-24T22:50:02;13.60;;;10.60;;
34471;SDS011;20710;49.976;19.836;2023-04-24T23:03:41;18.70;;;13.20;;
34471;SDS011;20710;49.976;19.836;2023-04-24T23:09:43;22.90;;;14.40;;
34471;SDS011;20710;49.976;19.836;2023-04-24T23:16:26;19.10;;;12.90;;
34471;SDS011;20710;49.976;19.836;2023-04-24T23:37:04;19.40;;;12.80;;
34471;SDS011;20710;49.976;19.836;2023-04-24T23:43:06;9.80;;;6.90;;
34471;SDS011;20710;49.976;19.836;2023-04-24T23:50:12;7.70;;;4.20;;
34471;SDS011;20710;49.976;19.836;2023-04-24T23:56:54;6.00;;;3.50;;
